Time;durP1;ratioP1;P1;durP2;ratioP2;P2;SDS_P1;SDS_P2;PMS_P1;PMS_P2;Temp;Humidity;BMP_temperature;BMP_pressure;BME280_temperature;BME280_humidity;BME280_pressure;Samples;Min_cycle;Max_cycle;Signal;HPM_P1;HPM_P2
2023/08/21 00:01:18;;;;;;;8.80;7.43;;;;;;;24.34;78.40;101082.38;5027060;28;20042;-61
2023/08/21 00:03:43;;;;;;;8.45;7.65;;;;;;;24.34;78.87;101090.34;5024637;28;20062;-61
2023/08/21 00:06:08;;;;;;;8.07;7.05;;;;;;;24.27;79.11;101089.59;5029770;28;20401;-61
2023/08/21 00:08:34;;;;;;;10.43;7.75;;;;;;;24.23;79.51;101088.38;5026607;28;20168;-61
2023/08/21 00:10:59;;;;;;;8.13;7.32;;;;;;;24.20;80.07;101088.81;5033922;28;20026;-61
2023/08/21 00:13:25;;;;;;;7.63;6.97;;;;;;;24.29;79.18;101085.69;5033228;28;20048;-61
2023/08/21 00:15:50;;;;;;;11.85;7.82;;;;;;;24.68;76.98;101084.44;5035613;28;20144;-61
2023/08/21 00:18:16;;;;;;;8.25;7.55;;;;;;;24.81;76.18;101078.97;5033046;28;20029;-61
2023/08/21 00:20:42;;;;;;;7.57;6.75;;;;;;;24.93;75.41;101083.56;5033104;28;20042;-61
2023/08/21 00:23:08;;;;;;;8.00;7.30;;;;;;;24.96;75.49;101080.47;5028961;28;20044;-61
2023/08/21 00:25:34;;;;;;;8.45;7.10;;;;;;;24.70;76.88;101079.72;5032377;28;20033;-61
2023/08/21 00:28:00;;;;;;;8.00;7.20;;;;;;;24.54;78.00;101071.50;5032110;28;20056;-61
2023/08/21 00:30:25;;;;;;;10.43;7.53;;;;;;;24.42;78.64;101087.41;5030494;28;20330;-61
2023/08/21 00:32:51;;;;;;;8.68;7.35;;;;;;;24.35;79.05;101070.69;5032075;28;20033;-61
2023/08/21 00:35:16;;;;;;;8.00;7.20;;;;;;;24.28;79.67;101076.06;5027806;28;20062;-61
2023/08/21 00:37:42;;;;;;;8.50;7.80;;;;;;;24.26;80.20;101069.34;5031013;28;20029;-61
2023/08/21 00:40:08;;;;;;;9.80;7.32;;;;;;;24.23;80.53;101072.41;5032036;28;20037;-61
2023/08/21 00:42:33;;;;;;;14.05;7.70;;;;;;;24.10;81.76;101068.81;5020739;28;20044;-61
2023/08/21 00:44:58;;;;;;;8.60;7.35;;;;;;;23.96;82.42;101077.16;5033470;28;20041;-61
2023/08/21 00:47:25;;;;;;;8.70;7.68;;;;;;;23.81;83.39;101074.81;5031143;28;20029;-61
2023/08/21 00:49:50;;;;;;;12.07;8.35;;;;;;;23.74;84.10;101079.38;5034647;28;20109;-61
2023/08/21 00:52:17;;;;;;;9.60;8.15;;;;;;;23.63;84.55;101078.22;5028003;28;20112;-61
2023/08/21 00:54:43;;;;;;;8.23;7.53;;;;;;;23.56;84.74;101064.19;5028824;28;20042;-61
2023/08/21 00:57:09;;;;;;;8.85;7.97;;;;;;;23.48;85.29;101075.84;5026442;28;20044;-61
2023/08/21 00:59:35;;;;;;;8.85;7.75;;;;;;;23.77;83.66;101073.63;5025756;28;20037;-61
2023/08/21 01:02:01;;;;;;;9.70;7.13;;;;;;;24.14;81.18;101074.53;5029961;28;20030;-61
2023/08/21 01:04:26;;;;;;;7.97;7.20;;;;;;;24.39;79.73;101066.53;5026179;28;20444;-61
2023/08/21 01:06:52;;;;;;;9.93;7.60;;;;;;;24.46;79.26;101062.78;5025098;28;20034;-61
2023/08/21 01:09:27;;;;;;;8.02;7.22;;;;;;;24.49;79.15;101069.50;5033892;28;20989;-61
2023/08/21 01:12:26;;;;;;;8.20;7.47;;;;;;;24.44;79.08;101070.19;5033816;28;20037;-61
2023/08/21 01:15:10;;;;;;;8.27;7.47;;;;;;;24.53;78.43;101073.38;5029618;28;20103;-61
2023/08/21 01:17:40;;;;;;;8.43;7.20;;;;;;;24.59;77.99;101067.13;5031566;28;20033;-61
2023/08/21 01:20:08;;;;;;;7.80;7.00;;;;;;;24.54;78.36;101074.19;5031111;28;20053;-61
2023/08/21 01:22:39;;;;;;;8.35;7.25;;;;;;;24.41;79.18;101085.78;5036111;28;20032;-61
2023/08/21 01:25:05;;;;;;;9.95;7.20;;;;;;;24.41;79.27;101083.13;5031370;28;20026;-61
2023/08/21 01:27:32;;;;;;;9.57;7.53;;;;;;;24.35;79.36;101082.16;5033268;28;20116;-61
2023/08/21 01:29:59;;;;;;;8.05;7.32;;;;;;;24.30;79.90;101094.50;5026931;28;20033;-61
2023/08/21 01:33:02;;;;;;;7.60;6.90;;;;;;;24.20;80.93;101094.13;5034699;28;20029;-61
2023/08/21 01:35:29;;;;;;;9.52;7.03;;;;;;;24.15;80.54;101090.28;5023896;28;20049;-61
2023/08/21 01:37:56;;;;;;;8.13;7.43;;;;;;;24.13;80.78;101084.34;5031065;28;20035;-61
2023/08/21 01:40:22;;;;;;;8.13;7.25;;;;;;;24.23;80.08;101086.53;5029450;28;20424;-61
2023/08/21 01:42:48;;;;;;;8.07;7.28;;;;;;;24.27;79.78;101087.75;5030792;28;20144;-61
2023/08/21 01:45:13;;;;;;;10.38;7.15;;;;;;;24.13;80.27;101079.03;5036011;28;20037;-61
2023/08/21 01:47:39;;;;;;;8.50;7.50;;;;;;;24.07;80.71;101077.28;5032569;28;20112;-61
2023/08/21 01:50:05;;;;;;;10.05;6.88;;;;;;;23.92;81.93;101078.63;5030652;28;20030;-61
2023/08/21 01:52:30;;;;;;;8.25;7.55;;;;;;;23.81;82.82;101078.28;5022478;28;20058;-61
2023/08/21 01:54:55;;;;;;;8.70;6.93;;;;;;;23.84;82.25;101085.03;5029309;28;20120;-61
2023/08/21 01:57:21;;;;;;;8.13;7.32;;;;;;;23.79;82.50;101084.88;5031288;28;20472;-61
2023/08/21 01:59:47;;;;;;;7.85;6.90;;;;;;;23.78;82.77;101086.72;5034251;28;20033;-61
2023/08/21 02:02:12;;;;;;;8.18;7.38;;;;;;;23.76;82.58;101078.13;5023706;28;20584;-61
2023/08/21 02:04:37;;;;;;;7.72;7.00;;;;;;;23.68;83.29;101086.38;5019891;28;20041;-61
2023/08/21 02:07:03;;;;;;;8.30;7.47;;;;;;;23.62;83.61;101081.94;5028920;28;20030;-61
2023/08/21 02:09:28;;;;;;;9.23;8.25;;;;;;;23.55;83.76;101091.81;5038984;28;20127;-61
2023/08/21 02:11:54;;;;;;;8.75;7.82;;;;;;;23.50;84.73;101087.09;5031449;28;20140;-61
2023/08/21 02:14:19;;;;;;;10.88;7.75;;;;;;;23.43;85.43;101083.66;5030707;28;20033;-61
2023/08/21 02:16:45;;;;;;;8.65;7.82;;;;;;;23.37;85.61;101081.84;5031883;28;20646;-61
2023/08/21 02:19:10;;;;;;;8.82;7.18;;;;;;;23.37;85.26;101079.19;5028640;28;20033;-61
2023/08/21 02:21:38;;;;;;;11.85;7.95;;;;;;;23.50;84.34;101081.78;5030696;28;20040;-61
2023/08/21 02:24:04;;;;;;;9.63;7.40;;;;;;;23.58;83.71;101075.41;5023288;28;20231;-61
2023/08/21 02:26:29;;;;;;;7.88;7.07;;;;;;;23.52;84.26;101076.25;5035206;28;20138;-61
2023/08/21 02:28:55;;;;;;;8.00;7.22;;;;;;;23.46;84.27;101083.22;5032204;28;20032;-61
2023/08/21 02:31:20;;;;;;;7.78;7.05;;;;;;;23.41;84.72;101072.41;5034420;28;20025;-61
2023/08/21 02:33:46;;;;;;;7.68;7.07;;;;;;;23.40;84.78;101076.09;5020665;28;20034;-61
2023/08/21 02:36:11;;;;;;;8.20;7.40;;;;;;;23.40;84.92;101075.28;5024622;28;20079;-61
2023/08/21 02:38:37;;;;;;;9.95;8.57;;;;;;;23.39;84.70;101071.81;5035787;28;20029;-61
2023/08/21 02:41:02;;;;;;;7.72;6.80;;;;;;;23.44;84.58;101068.50;5026878;28;20053;-61
2023/08/21 02:43:27;;;;;;;8.70;7.80;;;;;;;23.44;84.38;101069.31;5029493;28;20033;-61
2023/08/21 02:45:53;;;;;;;10.38;6.93;;;;;;;23.37;84.97;101068.56;5028826;28;20053;-61
2023/08/21 02:48:18;;;;;;;8.77;7.75;;;;;;;23.27;85.79;101065.53;5024984;28;20136;-61
2023/08/21 02:50:44;;;;;;;9.05;8.15;;;;;;;23.17;86.24;101065.19;5023346;28;20132;-61
2023/08/21 02:53:09;;;;;;;8.68;7.85;;;;;;;23.07;86.81;101070.16;5026571;28;20496;-61
2023/08/21 02:55:35;;;;;;;8.18;7.00;;;;;;;23.04;87.15;101065.28;5028245;28;20047;-61
2023/08/21 02:58:00;;;;;;;8.70;7.63;;;;;;;23.11;86.57;101068.72;5026924;28;20065;-61
2023/08/21 03:00:25;;;;;;;8.15;7.35;;;;;;;23.21;85.76;101058.41;5023022;28;20037;-62
2023/08/21 03:02:51;;;;;;;8.30;7.40;;;;;;;23.33;85.09;101062.03;5027982;28;20045;-61
2023/08/21 03:05:16;;;;;;;8.45;7.45;;;;;;;23.39;84.25;101060.38;5032362;28;20042;-61
2023/08/21 03:07:42;;;;;;;7.85;7.07;;;;;;;23.36;84.65;101060.78;5031658;28;20109;-61
2023/08/21 03:10:08;;;;;;;8.45;7.75;;;;;;;23.31;85.00;101057.97;5025790;28;20041;-61
2023/08/21 03:12:34;;;;;;;10.05;7.68;;;;;;;23.22;84.86;101049.41;5026369;28;20037;-61
2023/08/21 03:14:59;;;;;;;8.95;7.03;;;;;;;23.20;85.26;101056.78;5030366;28;20503;-61
2023/08/21 03:17:25;;;;;;;7.72;7.13;;;;;;;23.16;85.13;101055.56;5028564;28;20037;-61
2023/08/21 03:19:51;;;;;;;8.82;8.00;;;;;;;23.08;85.77;101058.50;5033279;28;20428;-61
2023/08/21 03:22:16;;;;;;;8.30;7.53;;;;;;;23.06;86.15;101061.38;5031131;28;20034;-61
2023/08/21 03:24:41;;;;;;;8.75;7.00;;;;;;;23.01;86.19;101053.22;5032823;28;20029;-61
2023/08/21 03:27:07;;;;;;;8.18;7.35;;;;;;;22.94;86.83;101054.28;5032146;28;20049;-62
2023/08/21 03:29:32;;;;;;;7.93;7.18;;;;;;;22.87;87.51;101056.13;5036832;28;20413;-61
2023/08/21 03:31:58;;;;;;;7.18;6.47;;;;;;;22.98;86.91;101052.81;5024716;28;20107;-61
2023/08/21 03:34:23;;;;;;;7.93;7.25;;;;;;;23.19;85.28;101055.16;5026617;28;20026;-62
2023/08/21 03:36:49;;;;;;;11.20;8.40;;;;;;;23.22;85.03;101057.38;5023386;28;20076;-61
2023/08/21 03:39:14;;;;;;;7.80;7.15;;;;;;;23.17;85.70;101058.03;5030360;28;20044;-61
2023/08/21 03:41:40;;;;;;;8.07;7.28;;;;;;;23.01;86.76;101063.03;5033558;28;20029;-61
2023/08/21 03:44:05;;;;;;;8.25;7.45;;;;;;;22.88;87.47;101055.94;5038027;28;20066;-61
2023/08/21 03:46:31;;;;;;;8.80;7.55;;;;;;;22.86;87.46;101054.50;5033554;28;20477;-61
2023/08/21 03:48:56;;;;;;;9.15;8.10;;;;;;;22.96;87.14;101057.53;5032934;28;20400;-61
2023/08/21 03:51:22;;;;;;;9.55;8.07;;;;;;;22.96;87.04;101057.53;5030864;28;20030;-61
2023/08/21 03:53:49;;;;;;;9.48;8.35;;;;;;;22.98;87.71;101071.44;5025305;28;20029;-61
2023/08/21 03:56:14;;;;;;;8.15;7.40;;;;;;;22.86;88.76;101055.31;5026354;28;20767;-61
2023/08/21 03:58:40;;;;;;;10.00;7.68;;;;;;;22.74;88.79;101064.94;5030140;28;20190;-61
2023/08/21 04:01:05;;;;;;;8.73;7.90;;;;;;;22.77;88.48;101065.34;5031417;28;20068;-61
2023/08/21 04:03:31;;;;;;;8.38;7.50;;;;;;;22.80;88.29;101062.28;5030087;28;20057;-61
2023/08/21 04:05:56;;;;;;;10.52;8.30;;;;;;;22.79;87.92;101068.63;5030974;28;20034;-61
2023/08/21 04:08:22;;;;;;;8.00;7.15;;;;;;;22.75;88.44;101059.41;5023189;28;20032;-61
2023/08/21 04:10:48;;;;;;;8.30;6.97;;;;;;;22.72;88.77;101059.03;5030317;28;20055;-61
2023/08/21 04:13:13;;;;;;;9.90;7.00;;;;;;;22.73;88.71;101058.81;5028680;28;20139;-61
2023/08/21 04:15:44;;;;;;;8.45;7.53;;;;;;;22.73;89.25;101056.16;5022521;28;20159;-61
2023/08/21 04:18:09;;;;;;;7.72;6.63;;;;;;;22.60;89.67;101060.72;5027975;28;20048;-61
2023/08/21 04:20:34;;;;;;;11.65;8.02;;;;;;;22.74;88.56;101055.13;5030520;28;20037;-61
2023/08/21 04:23:00;;;;;;;7.50;6.75;;;;;;;22.95;86.91;101064.69;5029768;28;20071;-61
2023/08/21 04:25:25;;;;;;;13.38;7.38;;;;;;;23.08;86.10;101056.66;5024701;28;20108;-61
2023/08/21 04:27:51;;;;;;;7.93;7.18;;;;;;;23.12;85.90;101060.53;5023126;28;20158;-61
2023/08/21 04:30:16;;;;;;;7.38;6.72;;;;;;;23.13;85.30;101061.34;5029053;28;21614;-61
2023/08/21 04:32:42;;;;;;;8.35;7.60;;;;;;;23.12;85.00;101065.03;5022635;28;20040;-61
2023/08/21 04:35:08;;;;;;;7.95;7.18;;;;;;;23.06;85.59;101066.69;5018706;28;20057;-61
2023/08/21 04:37:34;;;;;;;7.47;6.78;;;;;;;23.03;85.99;101067.13;5021359;28;20429;-61
2023/08/21 04:39:59;;;;;;;7.85;7.10;;;;;;;23.00;85.84;101069.38;5030360;28;20159;-62
2023/08/21 04:42:25;;;;;;;9.27;6.97;;;;;;;22.91;87.03;101076.75;5032308;28;20115;-60
2023/08/21 04:44:50;;;;;;;8.70;7.35;;;;;;;22.76;88.10;101074.31;5034163;28;20048;-61
2023/08/21 04:47:26;;;;;;;9.07;6.90;;;;;;;22.69;88.83;101075.38;5034696;28;20029;-61
2023/08/21 04:49:52;;;;;;;8.95;8.00;;;;;;;22.74;88.49;101067.59;5031906;28;20044;-61
2023/08/21 04:52:18;;;;;;;9.95;6.45;;;;;;;22.70;89.33;101067.19;5026818;28;20543;-61
2023/08/21 04:54:44;;;;;;;8.55;7.50;;;;;;;22.70;88.83;101074.34;5023862;28;20170;-61
2023/08/21 04:57:09;;;;;;;8.35;7.55;;;;;;;22.81;88.05;101074.56;5028844;28;20120;-61
2023/08/21 04:59:36;;;;;;;7.88;7.13;;;;;;;22.92;87.80;101081.06;5034708;28;20037;-61
2023/08/21 05:02:01;;;;;;;9.68;7.28;;;;;;;22.92;88.45;101074.94;5024714;28;20036;-61
2023/08/21 05:04:27;;;;;;;8.30;7.57;;;;;;;22.81;89.56;101071.88;5026654;28;20038;-61
2023/08/21 05:06:52;;;;;;;8.23;7.43;;;;;;;22.79;89.52;101076.59;5027924;28;20031;-61
2023/08/21 05:09:18;;;;;;;11.98;7.57;;;;;;;22.79;88.80;101079.25;5026584;28;20033;-61
2023/08/21 05:11:43;;;;;;;7.40;6.70;;;;;;;22.93;87.41;101077.38;5031788;28;20029;-61
2023/08/21 05:14:09;;;;;;;8.80;7.40;;;;;;;23.38;83.46;101080.00;5015791;28;20504;-62
2023/08/21 05:16:35;;;;;;;7.63;6.90;;;;;;;23.58;82.38;101075.41;5015351;28;20104;-62
2023/08/21 05:19:00;;;;;;;8.00;6.68;;;;;;;23.51;82.64;101077.28;5027319;28;20380;-62
2023/08/21 05:21:26;;;;;;;7.75;6.93;;;;;;;23.58;82.39;101085.25;5030736;28;20038;-62
2023/08/21 05:23:51;;;;;;;7.43;6.75;;;;;;;23.57;82.34;101080.94;5022553;28;20033;-62
2023/08/21 05:26:17;;;;;;;8.65;6.68;;;;;;;23.55;82.43;101085.66;5029986;28;20112;-62
2023/08/21 05:28:42;;;;;;;9.73;7.13;;;;;;;23.43;83.29;101088.16;5028105;28;20060;-62
2023/08/21 05:31:08;;;;;;;9.13;7.13;;;;;;;23.30;84.39;101094.34;5024109;28;20132;-62
2023/08/21 05:33:33;;;;;;;7.97;7.25;;;;;;;23.20;85.08;101093.19;5028373;28;20025;-62
2023/08/21 05:35:59;;;;;;;8.07;7.18;;;;;;;23.18;85.53;101090.72;5017629;28;20624;-62
2023/08/21 05:38:24;;;;;;;10.13;7.13;;;;;;;23.17;86.08;101105.06;5020017;28;20504;-62
2023/08/21 05:40:49;;;;;;;9.65;7.18;;;;;;;23.24;85.84;101103.19;5020778;28;20041;-62
2023/08/21 05:43:16;;;;;;;8.45;7.10;;;;;;;23.35;85.31;101102.50;5017723;28;20044;-62
2023/08/21 05:45:42;;;;;;;7.38;6.57;;;;;;;23.40;85.41;101099.22;5023700;28;20463;-62
2023/08/21 05:48:08;;;;;;;9.07;6.82;;;;;;;23.47;84.91;101095.50;5018311;28;20095;-62
2023/08/21 05:50:33;;;;;;;10.52;8.15;;;;;;;23.47;85.30;101095.50;5023236;28;20061;-61
2023/08/21 05:53:01;;;;;;;8.80;8.00;;;;;;;23.52;85.40;101110.81;5026884;28;20049;-61
2023/08/21 05:55:26;;;;;;;11.43;8.43;;;;;;;23.59;85.30;101114.28;5025675;28;20030;-61
2023/08/21 05:57:52;;;;;;;9.27;7.70;;;;;;;23.71;84.69;101103.75;5025840;28;20120;-61
2023/08/21 06:00:18;;;;;;;10.95;8.80;;;;;;;23.81;84.13;101106.75;5021302;28;20030;-61
2023/08/21 06:02:43;;;;;;;8.23;6.22;;;;;;;24.03;82.61;101102.69;5017837;28;20084;-61
2023/08/21 06:05:09;;;;;;;7.28;6.07;;;;;;;24.19;81.69;101101.31;5026602;28;20549;-61
2023/08/21 06:07:34;;;;;;;7.30;6.70;;;;;;;24.22;81.78;101102.72;5022805;28;20457;-61
2023/08/21 06:09:59;;;;;;;7.78;6.75;;;;;;;24.25;81.20;101105.78;5029943;28;20026;-61
2023/08/21 06:12:25;;;;;;;9.18;5.97;;;;;;;24.41;80.33;101096.44;5028607;28;20029;-61
2023/08/21 06:14:50;;;;;;;7.15;5.25;;;;;;;24.55;79.44;101100.59;5027661;28;20539;-61
2023/08/21 06:17:16;;;;;;;7.82;5.95;;;;;;;24.56;79.71;101104.06;5025391;28;20116;-61
2023/08/21 06:19:41;;;;;;;10.05;5.75;;;;;;;24.60;80.03;101113.22;5021727;28;20124;-61
2023/08/21 06:22:07;;;;;;;7.07;6.35;;;;;;;24.72;79.97;101109.59;5025625;28;20045;-61
2023/08/21 06:24:33;;;;;;;11.18;6.13;;;;;;;24.73;79.85;101107.75;5021128;28;20095;-61
2023/08/21 06:26:58;;;;;;;11.43;6.57;;;;;;;24.71;80.18;101104.50;5017350;28;20055;-61
2023/08/21 06:29:24;;;;;;;9.50;6.15;;;;;;;24.80;79.57;101111.16;5030694;28;20026;-60
2023/08/21 06:31:49;;;;;;;9.93;6.45;;;;;;;24.94;80.00;101107.31;5018023;28;20101;-60
2023/08/21 06:34:15;;;;;;;9.48;6.10;;;;;;;25.07;80.00;101106.34;5019512;28;20033;-61
2023/08/21 06:36:40;;;;;;;9.68;5.88;;;;;;;25.22;80.04;101104.09;5023736;28;20056;-61
2023/08/21 06:39:06;;;;;;;9.70;6.70;;;;;;;25.36;79.69;101104.75;5024288;28;20036;-61
2023/08/21 06:41:31;;;;;;;9.48;6.28;;;;;;;25.47;79.31;101101.31;5027138;28;20033;-61
2023/08/21 06:43:57;;;;;;;11.18;6.00;;;;;;;25.62;78.25;101098.19;5022656;28;20034;-61
2023/08/21 06:46:23;;;;;;;5.47;4.35;;;;;;;25.73;78.12;101100.13;5029336;28;20079;-61
2023/08/21 06:48:50;;;;;;;10.10;6.28;;;;;;;25.74;77.30;101107.91;5021305;28;20045;-61
2023/08/21 06:51:16;;;;;;;6.35;5.55;;;;;;;25.83;76.08;101105.72;5019155;28;20033;-61
2023/08/21 06:53:41;;;;;;;7.88;6.00;;;;;;;25.95;75.19;101095.88;5024501;28;20029;-61
2023/08/21 06:56:07;;;;;;;8.80;5.05;;;;;;;26.09;73.79;101091.91;5020402;28;20436;-61
2023/08/21 06:58:32;;;;;;;7.45;5.38;;;;;;;26.25;72.67;101102.97;5023975;28;20478;-61
2023/08/21 07:00:59;;;;;;;6.75;5.20;;;;;;;26.42;72.11;101098.56;5018212;28;20041;-61
2023/08/21 07:03:25;;;;;;;6.47;5.57;;;;;;;26.58;71.10;101097.03;5025520;28;20030;-61
2023/08/21 07:05:58;;;;;;;5.90;5.30;;;;;;;26.70;70.00;101103.16;5017722;28;20052;-61
2023/08/21 07:08:24;;;;;;;6.50;5.88;;;;;;;26.80;70.86;101100.72;5019180;28;20033;-61
2023/08/21 07:10:49;;;;;;;8.98;6.10;;;;;;;26.88;72.03;101102.22;5019332;28;20408;-61
2023/08/21 07:13:15;;;;;;;9.43;5.90;;;;;;;26.93;72.06;101110.34;5031796;28;20577;-61
2023/08/21 07:15:40;;;;;;;6.30;5.72;;;;;;;27.03;72.74;101106.00;5028545;28;20109;-61
2023/08/21 07:18:07;;;;;;;6.32;5.82;;;;;;;27.09;73.28;101110.41;5026511;28;20033;-61
2023/08/21 07:20:33;;;;;;;7.85;6.90;;;;;;;27.13;73.63;101109.94;5027094;28;20134;-61
2023/08/21 07:22:58;;;;;;;8.95;6.22;;;;;;;27.24;74.00;101107.22;5019107;28;20510;-61
2023/08/21 07:25:25;;;;;;;7.28;6.32;;;;;;;27.42;72.89;101104.31;5019896;28;20026;-61
2023/08/21 07:27:53;;;;;;;7.15;6.50;;;;;;;27.53;72.96;101109.84;5025218;28;20053;-61
2023/08/21 07:30:18;;;;;;;7.78;7.00;;;;;;;27.58;72.99;101102.72;5020985;28;20037;-61
2023/08/21 07:32:44;;;;;;;10.88;7.43;;;;;;;27.62;74.07;101103.09;5032691;28;20121;-61
2023/08/21 07:35:10;;;;;;;12.95;8.30;;;;;;;27.60;73.94;101105.19;5023870;28;20057;-61
2023/08/21 07:37:36;;;;;;;11.20;7.25;;;;;;;27.78;74.22;101113.00;5026190;28;20029;-61
2023/08/21 07:40:01;;;;;;;8.68;7.15;;;;;;;27.79;74.36;101108.47;5021369;28;20556;-61
2023/08/21 07:42:27;;;;;;;7.35;6.75;;;;;;;27.86;74.20;101111.81;5026385;28;20108;-61
2023/08/21 07:44:53;;;;;;;6.60;6.10;;;;;;;27.89;73.12;101105.94;5034469;28;20465;-61
2023/08/21 07:47:18;;;;;;;7.45;6.68;;;;;;;27.99;72.10;101112.28;5025240;28;20435;-61
2023/08/21 07:49:44;;;;;;;7.38;6.75;;;;;;;28.07;71.88;101103.81;5020806;28;20120;-61
2023/08/21 07:52:09;;;;;;;7.82;6.57;;;;;;;28.23;71.72;101104.91;5021942;28;20168;-61
2023/08/21 07:54:35;;;;;;;7.25;6.57;;;;;;;28.35;71.66;101110.16;5030752;28;20103;-62
2023/08/21 07:57:02;;;;;;;7.78;6.47;;;;;;;28.57;71.48;101111.00;5030523;28;20052;-61
2023/08/21 07:59:27;;;;;;;7.75;7.05;;;;;;;28.66;71.94;101098.78;5028198;28;20037;-61
2023/08/21 08:01:52;;;;;;;9.38;7.05;;;;;;;28.68;72.21;101107.38;5025172;28;20117;-61
2023/08/21 08:04:18;;;;;;;7.90;7.03;;;;;;;28.74;71.57;101093.00;5021584;28;20198;-61
2023/08/21 08:06:43;;;;;;;9.90;8.10;;;;;;;28.90;71.40;101106.59;5027243;28;20041;-61
2023/08/21 08:09:09;;;;;;;6.50;6.00;;;;;;;28.95;69.11;101098.59;5032561;28;20038;-61
2023/08/21 08:11:34;;;;;;;7.88;7.18;;;;;;;29.01;68.76;101100.28;5033413;28;20044;-61
2023/08/21 08:14:00;;;;;;;7.22;6.18;;;;;;;29.12;67.88;101102.03;5025588;28;20030;-61
2023/08/21 08:16:25;;;;;;;7.93;6.85;;;;;;;29.26;68.33;101097.06;5028518;28;20033;-61
2023/08/21 08:18:51;;;;;;;9.38;7.38;;;;;;;29.26;67.67;101102.44;5029379;28;20033;-62
2023/08/21 08:21:17;;;;;;;10.68;7.25;;;;;;;29.52;66.06;101098.16;5016462;28;20349;-61
2023/08/21 08:23:43;;;;;;;9.48;6.45;;;;;;;29.57;66.21;101088.25;5026012;28;20450;-61
2023/08/21 08:26:08;;;;;;;10.07;6.88;;;;;;;29.61;65.89;101086.69;5025644;28;20146;-62
2023/08/21 08:28:35;;;;;;;8.30;5.22;;;;;;;29.68;64.21;101092.66;5025034;28;20502;-62
2023/08/21 08:31:00;;;;;;;7.18;6.25;;;;;;;29.85;63.40;101091.69;5028864;28;20107;-61
2023/08/21 08:33:26;;;;;;;6.47;5.95;;;;;;;29.88;62.65;101093.88;5029808;28;20120;-61
2023/08/21 08:35:51;;;;;;;6.50;5.90;;;;;;;29.88;62.05;101086.63;5025781;28;20056;-61
2023/08/21 08:38:18;;;;;;;12.63;6.35;;;;;;;29.71;63.16;101089.47;5030365;28;20131;-61
2023/08/21 08:40:45;;;;;;;7.10;6.18;;;;;;;29.86;62.84;101080.69;5034258;28;20480;-61
2023/08/21 08:43:14;;;;;;;5.80;4.82;;;;;;;29.78;62.74;101083.03;5028471;28;20416;-61
2023/08/21 08:45:41;;;;;;;6.88;5.72;;;;;;;29.76;63.45;101086.00;5022976;28;20030;-61
2023/08/21 08:48:07;;;;;;;4.95;4.45;;;;;;;29.82;62.54;101084.97;5022789;28;20033;-66
2023/08/21 08:50:34;;;;;;;5.90;5.32;;;;;;;29.89;62.73;101082.88;5016711;28;20473;-61
2023/08/21 08:53:00;;;;;;;10.63;5.07;;;;;;;29.85;62.17;101084.44;5025424;28;20405;-60
2023/08/21 08:55:26;;;;;;;7.90;4.93;;;;;;;29.80;61.77;101076.34;5029787;28;20045;-64
2023/08/21 08:57:53;;;;;;;5.63;5.13;;;;;;;29.76;61.23;101080.63;5028580;28;20445;-63
2023/08/21 09:00:20;;;;;;;6.68;4.97;;;;;;;29.72;61.57;101079.53;5030717;28;20409;-61
2023/08/21 09:02:46;;;;;;;5.40;4.72;;;;;;;29.85;60.94;101076.38;5019920;28;20038;-61
2023/08/21 09:05:12;;;;;;;5.75;4.85;;;;;;;30.00;60.51;101068.47;5032453;28;20033;-61
2023/08/21 09:07:38;;;;;;;5.07;4.57;;;;;;;29.98;59.90;101064.41;5035912;28;20508;-61
2023/08/21 09:10:04;;;;;;;4.43;4.03;;;;;;;29.94;60.00;101066.78;5023954;28;20029;-62
2023/08/21 09:12:32;;;;;;;5.82;4.85;;;;;;;29.91;59.62;101071.88;5033843;28;20040;-61
2023/08/21 09:14:59;;;;;;;6.32;4.75;;;;;;;29.55;60.52;101065.41;5029955;28;20168;-62
2023/08/21 09:17:26;;;;;;;7.00;4.70;;;;;;;29.54;60.35;101066.47;5030391;28;20041;-61
2023/08/21 09:19:52;;;;;;;7.18;4.90;;;;;;;29.54;60.87;101064.59;5019545;28;20029;-62
2023/08/21 09:22:19;;;;;;;4.80;4.18;;;;;;;29.37;61.58;101059.31;5025194;28;20038;-62
2023/08/21 09:25:06;;;;;;;6.18;4.70;;;;;;;29.53;60.18;101059.50;5023699;28;20045;-63
2023/08/21 09:27:33;;;;;;;5.90;4.63;;;;;;;29.72;59.80;101058.06;5023550;28;20063;-63
2023/08/21 09:30:00;;;;;;;7.80;5.10;;;;;;;29.65;60.47;101062.81;5022410;28;20045;-63
2023/08/21 09:32:25;;;;;;;5.53;4.93;;;;;;;29.36;61.82;101054.22;5024231;28;20033;-70
2023/08/21 09:34:51;;;;;;;6.50;4.68;;;;;;;29.22;62.21;101058.41;5025534;28;20191;-63
2023/08/21 09:37:17;;;;;;;5.35;4.90;;;;;;;29.24;61.70;101042.84;5029368;28;20487;-63
2023/08/21 09:39:42;;;;;;;5.30;4.50;;;;;;;29.21;61.67;101046.84;5025846;28;20041;-63
2023/08/21 09:42:09;;;;;;;7.05;4.90;;;;;;;29.35;61.61;101048.03;5026018;28;20048;-63
2023/08/21 09:44:43;;;;;;;5.30;4.32;;;;;;;29.42;61.81;101039.00;5028570;28;20045;-63
2023/08/21 09:47:12;;;;;;;6.77;4.70;;;;;;;29.40;61.44;101034.66;5025311;28;20575;-63
2023/08/21 09:49:39;;;;;;;4.05;3.67;;;;;;;29.75;59.60;101033.38;5035525;28;20885;-61
2023/08/21 09:52:10;;;;;;;5.32;4.40;;;;;;;29.87;59.91;101033.97;5026019;28;20037;-61
2023/08/21 09:54:38;;;;;;;4.40;4.00;;;;;;;30.08;58.63;101029.56;5026054;28;20560;-61
2023/08/21 09:57:04;;;;;;;4.30;4.00;;;;;;;30.09;58.56;101025.00;5027521;28;20028;-61
2023/08/21 09:59:31;;;;;;;4.75;4.07;;;;;;;30.09;59.60;101025.00;5029474;28;20034;-61
2023/08/21 10:01:58;;;;;;;8.43;4.35;;;;;;;29.98;60.24;101024.91;5022735;28;20429;-62
2023/08/21 10:04:25;;;;;;;3.42;3.13;;;;;;;30.00;59.46;101020.13;5032261;28;20052;-62
2023/08/21 10:06:53;;;;;;;4.07;3.65;;;;;;;30.14;58.51;101008.91;5027814;28;20154;-62
2023/08/21 10:09:20;;;;;;;5.13;3.70;;;;;;;30.27;57.87;101006.53;5015775;28;20066;-61
2023/08/21 10:11:46;;;;;;;4.20;3.63;;;;;;;30.27;58.02;101009.22;5015776;28;20125;-61
2023/08/21 10:14:13;;;;;;;4.60;3.42;;;;;;;30.40;56.67;101007.13;5018108;28;20029;-61
2023/08/21 10:16:38;;;;;;;4.43;3.58;;;;;;;30.41;56.63;101004.19;5033889;28;20033;-62
2023/08/21 10:19:05;;;;;;;5.78;3.03;;;;;;;30.38;56.46;101005.50;5033490;28;20028;-61
2023/08/21 10:21:36;;;;;;;4.93;4.03;;;;;;;30.37;56.39;101003.09;5028592;28;20033;-62
2023/08/21 10:24:02;;;;;;;4.00;3.70;;;;;;;30.24;57.15;100992.84;5021944;28;20035;-61
2023/08/21 10:26:27;;;;;;;4.68;4.28;;;;;;;30.20;58.70;100999.81;5020695;28;20029;-61
2023/08/21 10:29:07;;;;;;;3.90;3.60;;;;;;;30.21;59.14;100996.06;5029505;28;20034;-61
2023/08/21 10:31:38;;;;;;;5.68;3.55;;;;;;;30.37;57.94;100986.97;5030169;28;20110;-62
2023/08/21 10:34:11;;;;;;;4.00;3.70;;;;;;;30.41;58.57;100996.13;5023329;28;20166;-61
2023/08/21 10:36:42;;;;;;;6.28;3.67;;;;;;;30.45;56.44;100991.03;5029982;28;20048;-62
2023/08/21 10:39:14;;;;;;;3.95;3.60;;;;;;;30.50;56.07;100988.34;5016313;28;20045;-61
2023/08/21 10:41:41;;;;;;;3.15;2.95;;;;;;;30.41;56.87;100988.03;5010415;28;20030;-62
2023/08/21 10:44:08;;;;;;;3.97;3.58;;;;;;;30.42;57.00;100986.97;5014477;28;20037;-61
2023/08/21 10:46:52;;;;;;;5.05;3.22;;;;;;;30.36;56.14;100994.22;5011519;28;20029;-60
2023/08/21 10:49:18;;;;;;;4.00;3.70;;;;;;;30.36;56.58;100985.34;5012142;28;20119;-60
2023/08/21 10:51:44;;;;;;;4.07;3.45;;;;;;;30.48;55.87;100990.50;5013133;28;20524;-61
2023/08/21 10:54:16;;;;;;;4.70;3.30;;;;;;;30.52;56.04;100987.00;4999117;28;20468;-61
2023/08/21 10:56:41;;;;;;;6.80;3.22;;;;;;;30.59;55.82;100986.81;4999425;28;20048;-62
2023/08/21 10:59:07;;;;;;;6.10;3.97;;;;;;;30.65;56.44;100986.56;5011861;28;20041;-63
2023/08/21 11:01:45;;;;;;;4.55;3.40;;;;;;;30.73;56.12;100987.09;5022520;28;20038;-63
2023/08/21 11:04:14;;;;;;;5.63;3.67;;;;;;;30.76;55.71;100991.94;5006220;28;20764;-62
2023/08/21 11:06:39;;;;;;;4.40;4.00;;;;;;;30.75;54.79;100988.44;4997127;28;20042;-61
2023/08/21 11:09:05;;;;;;;4.15;3.78;;;;;;;30.68;54.77;100979.84;4997614;28;20044;-62
2023/08/21 11:11:31;;;;;;;3.70;3.40;;;;;;;30.63;53.78;100977.94;4998909;28;20769;-62
2023/08/21 11:13:56;;;;;;;6.05;4.13;;;;;;;30.62;53.89;100986.28;4996068;28;20085;-66
2023/08/21 11:16:24;;;;;;;3.42;3.13;;;;;;;30.54;54.97;100984.88;4996347;28;21374;-62
2023/08/21 11:18:50;;;;;;;6.05;3.92;;;;;;;30.67;54.32;100975.53;4997891;28;20022;-62
2023/08/21 11:21:15;;;;;;;6.40;3.80;;;;;;;30.73;54.89;100970.94;5000907;28;20083;-62